KRPD

Rice Lake Regional - Carl's Field Airport

Rice Lake, Wisconsin, USA
METAR KRPD 211955Z AUTO 35003KT 10SM OVC080 03/M01 A2995 RMK AO2 T00251011
Observed Flight Rules
Jan-21 @ 19:55 UTC (22 minutes ago) Visual Flight Rules
Wind Visibility Clouds
350° at 3 knots 10 miles
  • Overcast at 8,000' AGL
Temperatures Readings
Current 3°C / 37°F
Dewpoint -1°C / 30°F
Humidity 75%
Altimeter 29.95" Hg
Pressure 1014 hPa
Elevation 338
METAR KRPD 211955Z AUTO 35003KT 10SM OVC080 03/M01 A2995 RMK AO2 T00251011
Observed Flight Rules
Jan-21 @ 19:55 UTC
(22 minutes ago)
VFR
Wind Visibility
350° at 3 knots 10 miles
Clouds
  • Overcast at 8,000' AGL
Temperature Dewpoint
3°C / 37°F -1°C / 30°F
Humidity Altimeter Pressure
75% 29.95" Hg 1014 hPa